YMAV/AVV METAR and TAF weather

Enter ICAO airport designator
Station Type Date Time Source
YMAV METAR 2020/11/28 19:09 UTC NOAA

YMAV 281909Z AUTO 24019KT 5000 // SCT010 BKN014 OVC020 15/15 Q1001


Station Type Date Time Source
YMAV Decoded METAR 2020/11/28 19:09 UTC NOAA

Avalon, Avalon Airport, Australia (YMAV) 38-02S 144-29E
Nov 28, 2020 - 02:09 PM EST / 2020.11.28 1909 UTC
Wind: from the WSW (240 degrees) at 22 MPH (19 KT):0
Visibility: 3 mile(s):0
Sky conditions: overcast
Temperature: 59 F (15 C)
Dew Point: 59 F (15 C)
Relative Humidity: 100%
Pressure (altimeter): 29.56 in. Hg (1001 hPa)
ob: YMAV 281909Z AUTO 24019KT 5000 // SCT010 BKN014 OVC020 15/15 Q1001
cycle: 19

Station Type Date Time Source
YMAV TAF 2020/11/28 18:03 UTC NOAA

TAF TAF
AMD YMAV 281701Z 2818/2918 23010KT 9999 -SHRA BKN010
BECMG 2821/2823 20013KT 9999 -SHRA FEW015 BKN030
FM290200 19017KT 9999 NSW SCT040
FM290900 18008KT 9999 BKN025
FM291700 10005KT 9999 FEW015 BKN020
TEMPO 2818/2822 3000 RA BKN005 INTER 2822/2900 5000 SHRA BKN012

Example: see airport list